Hauptseite
METAR-TAF:

METAR-TAF

Flughäfen :

RAF Fairford

Fairford, England

Breite: 51-41N, Länge: 001-47W, Höhe: 87 m

Beobachtung

Neuester Wetterbericht von vor 31 Minuten, um 10:17 UTC
Wind 11 kt aus Süd
Temperatur 11°C
Luftfeuchtigkeit 82%
Luftdruck 996 hPa
Sichtweite 10 km oder mehr
Aufgelockert bewölkt in der Höhe von 2700 ft

METAR: EGVA 251017Z AUTO 18011KT 9999 SCT027 11/08 A2940 RMK AO2 RAE17 SLP960 VISNO RWY27 $

Zeit: 11:48 (10:48 UTC)


TAF: fehlend

Wetterbeobachtungen und Prognosen von mehr als 4000 Flughäfen (METAR und TAF Bericht).

Die verfügbaren Stationen werden durch gelbe und rote Markierungen auf der Karte dargestellt.

Führen Sie die Maus auf sie, um den Namen der Station zu sehen.

Darauf klicken, um die Beobachtung von Wetterbeobachtungen und Prognosen zu sehen.

Um die Karte zu ändern : klicken Sie auf den grünen Tasten mit einem schwarzen Kreuz Zum Vergrößern, auf den grünen Button mit einem Gedankenstrich zu verkleinern, oder auf die grünen Pfeile für benachbarte Karten.


METAR-TAF: